createdAt,value
2018-05-17T00:00:50.465Z,1019.45
2018-05-17T00:02:12.004Z,1019.38
2018-05-17T00:03:33.528Z,1019.34
2018-05-17T00:04:55.323Z,1019.39
2018-05-17T00:06:17.612Z,1019.46
2018-05-17T00:07:39.590Z,1019.46
2018-05-17T00:09:01.744Z,1019.46
2018-05-17T00:10:23.277Z,1019.42
2018-05-17T00:11:44.819Z,1019.44
2018-05-17T00:13:06.879Z,1019.4
2018-05-17T00:14:28.674Z,1019.38
2018-05-17T00:15:50.479Z,1019.38
2018-05-17T00:17:12.023Z,1019.46
2018-05-17T00:18:34.094Z,1019.39
2018-05-17T00:19:55.635Z,1019.4
2018-05-17T00:21:17.454Z,1019.39
2018-05-17T00:22:39.260Z,1019.38
2018-05-17T00:24:01.325Z,1019.4
2018-05-17T00:25:23.428Z,1019.43
2018-05-17T00:26:45.497Z,1019.43
2018-05-17T00:28:07.034Z,1019.44
2018-05-17T00:29:28.830Z,1019.51
2018-05-17T00:30:51.111Z,1019.46
2018-05-17T00:32:13.339Z,1019.48
2018-05-17T00:33:35.390Z,1019.51
2018-05-17T00:34:56.926Z,1019.51
2018-05-17T00:36:18.990Z,1019.48
2018-05-17T00:37:40.285Z,1019.51
2018-05-17T00:39:01.545Z,1019.51
2018-05-17T00:40:23.609Z,1019.44
2018-05-17T00:41:45.399Z,1019.54
2018-05-17T00:43:07.207Z,1019.51
2018-05-17T00:44:29.269Z,1019.48
2018-05-17T00:45:51.329Z,1019.58
2018-05-17T00:47:13.128Z,1019.48
2018-05-17T00:48:34.927Z,1019.57
2018-05-17T00:49:56.997Z,1019.57
2018-05-17T00:51:18.820Z,1019.48
2018-05-17T00:52:40.618Z,1019.56
2018-05-17T00:54:02.145Z,1019.51
2018-05-17T00:55:24.209Z,1019.51
2018-05-17T00:56:46.010Z,1019.51
2018-05-17T00:58:08.061Z,1019.58
2018-05-17T00:59:30.114Z,1019.55
2018-05-17T01:00:51.652Z,1019.51
2018-05-17T01:02:13.452Z,1019.47
2018-05-17T01:03:35.513Z,1019.46
2018-05-17T01:04:57.318Z,1019.54
2018-05-17T01:06:19.102Z,1019.52
2018-05-17T01:07:40.933Z,1019.5
2018-05-17T01:09:02.202Z,1019.48
2018-05-17T01:10:24.262Z,1019.49
2018-05-17T01:11:46.318Z,1019.51
2018-05-17T01:13:08.115Z,1019.53
2018-05-17T01:14:30.165Z,1019.59
2018-05-17T01:15:51.717Z,1019.57
2018-05-17T01:17:13.255Z,1019.56
2018-05-17T01:18:35.045Z,1019.57
2018-05-17T01:19:56.864Z,1019.56
2018-05-17T01:21:18.908Z,1019.64
2018-05-17T01:22:40.711Z,1019.53
2018-05-17T01:24:02.837Z,1019.51
2018-05-17T01:25:24.649Z,1019.47
2018-05-17T01:26:46.440Z,1019.53
2018-05-17T01:28:08.508Z,1019.43
2018-05-17T01:29:30.295Z,1019.53
2018-05-17T01:30:52.084Z,1019.48
2018-05-17T01:32:14.162Z,1019.42
2018-05-17T01:33:36.244Z,1019.43
2018-05-17T01:34:58.132Z,1019.49
2018-05-17T01:36:20.078Z,1019.48
2018-05-17T01:37:42.149Z,1019.45
2018-05-17T01:39:03.962Z,1019.51
2018-05-17T01:40:25.765Z,1019.48
2018-05-17T01:41:47.567Z,1019.55
2018-05-17T01:43:09.798Z,1019.5
2018-05-17T01:44:31.663Z,1019.46
2018-05-17T01:45:53.199Z,1019.48
2018-05-17T01:47:14.983Z,1019.51
2018-05-17T01:48:36.780Z,1019.47
2018-05-17T01:49:58.833Z,1019.29
2018-05-17T01:51:20.357Z,1019.5
2018-05-17T01:52:42.145Z,1019.51
2018-05-17T01:54:03.970Z,1019.47
2018-05-17T01:55:25.772Z,1019.51
2018-05-17T01:56:47.557Z,1019.48
2018-05-17T01:58:09.090Z,1019.53
2018-05-17T01:59:31.158Z,1019.42
2018-05-17T02:00:52.970Z,1019.46
2018-05-17T02:02:15.038Z,1019.51
2018-05-17T02:03:37.091Z,1019.56
2018-05-17T02:04:58.624Z,1019.48
2018-05-17T02:06:20.418Z,1019.5
2018-05-17T02:07:42.478Z,1019.52
2018-05-17T02:09:04.283Z,1019.52
2018-05-17T02:10:25.563Z,1019.54
2018-05-17T02:11:47.629Z,1019.51
2018-05-17T02:13:09.683Z,1019.59
2018-05-17T02:14:31.749Z,1019.6
2018-05-17T02:15:53.290Z,1019.61
2018-05-17T02:17:15.338Z,1019.58
2018-05-17T02:18:37.129Z,1019.53
2018-05-17T02:19:58.922Z,1019.48
2018-05-17T02:21:20.722Z,1019.6
2018-05-17T02:22:42.774Z,1019.6
2018-05-17T02:24:04.847Z,1019.63
2018-05-17T02:25:26.899Z,1019.56
2018-05-17T02:26:48.693Z,1019.54
2018-05-17T02:28:10.232Z,1019.46
2018-05-17T02:29:32.025Z,1019.46
2018-05-17T02:30:53.291Z,1019.46
2018-05-17T02:32:15.093Z,1019.66
2018-05-17T02:33:36.900Z,1019.6
2018-05-17T02:34:58.956Z,1019.6
2018-05-17T02:36:21.014Z,1019.6
2018-05-17T02:37:42.814Z,1019.62
2018-05-17T02:39:04.631Z,1019.6
2018-05-17T02:40:26.707Z,1019.68
2018-05-17T02:41:48.515Z,1019.65
2018-05-17T02:43:10.052Z,1019.63
2018-05-17T02:44:31.835Z,1019.73
2018-05-17T02:45:53.651Z,1019.66
2018-05-17T02:47:15.457Z,1019.68
2018-05-17T02:48:37.288Z,1019.68
2018-05-17T02:49:59.357Z,1019.66
2018-05-17T02:51:21.152Z,1019.7
2018-05-17T02:52:43.223Z,1019.69
2018-05-17T02:54:05.390Z,1019.63
2018-05-17T02:55:27.186Z,1019.67
2018-05-17T02:56:49.255Z,1019.8
2018-05-17T02:58:11.321Z,1019.58
2018-05-17T02:59:32.867Z,1019.68
2018-05-17T03:00:54.929Z,1019.61
2018-05-17T03:02:16.716Z,1019.57
2018-05-17T03:03:38.784Z,1019.58
2018-05-17T03:05:00.849Z,1019.73
2018-05-17T03:06:23.127Z,1019.7
2018-05-17T03:07:44.929Z,1019.66
2018-05-17T03:09:06.463Z,1019.64
2018-05-17T03:10:28.534Z,1019.69
2018-05-17T03:11:50.325Z,1019.68
2018-05-17T03:13:11.861Z,1019.79
2018-05-17T03:14:33.662Z,1019.67
2018-05-17T03:15:55.462Z,1019.61
2018-05-17T03:17:17.010Z,1019.57
2018-05-17T03:18:38.798Z,1019.66
2018-05-17T03:20:00.849Z,1019.71
2018-05-17T03:21:22.592Z,1019.74
2018-05-17T03:22:43.872Z,1019.7
2018-05-17T03:24:05.404Z,1019.7
2018-05-17T03:25:27.465Z,1019.71
2018-05-17T03:26:49.256Z,1019.72
2018-05-17T03:28:11.061Z,1019.67
2018-05-17T03:29:33.128Z,1019.72
2018-05-17T03:30:54.666Z,1019.73
2018-05-17T03:32:16.210Z,1019.68
2018-05-17T03:33:38.012Z,1019.74
2018-05-17T03:35:00.078Z,1019.68
2018-05-17T03:36:22.135Z,1019.8
2018-05-17T03:37:43.937Z,1019.77
2018-05-17T03:39:05.989Z,1019.77
2018-05-17T03:40:28.057Z,1019.74
2018-05-17T03:41:50.145Z,1019.67
2018-05-17T03:43:11.945Z,1019.63
2018-05-17T03:44:33.755Z,1019.69
2018-05-17T03:45:55.552Z,1019.72
2018-05-17T03:47:17.609Z,1019.69
2018-05-17T03:48:39.661Z,1019.66
2018-05-17T03:50:01.213Z,1019.66
2018-05-17T03:51:23.273Z,1019.64
2018-05-17T03:52:45.333Z,1019.71
2018-05-17T03:54:07.342Z,1019.73
2018-05-17T03:55:28.887Z,1019.68
2018-05-17T03:56:50.671Z,1019.67
2018-05-17T03:58:12.205Z,1019.68
2018-05-17T03:59:34.257Z,1019.72
2018-05-17T04:00:56.052Z,1019.67
2018-05-17T04:02:18.200Z,1019.75
2018-05-17T04:03:39.728Z,1019.7
2018-05-17T04:05:01.592Z,1019.69
2018-05-17T04:06:23.491Z,1019.7
2018-05-17T04:07:45.547Z,1019.75
2018-05-17T04:09:07.594Z,1019.72
2018-05-17T04:10:29.868Z,1019.68
2018-05-17T04:11:51.924Z,1019.71
2018-05-17T04:13:13.453Z,1019.68
2018-05-17T04:14:35.518Z,1019.71
2018-05-17T04:15:57.314Z,1019.74
2018-05-17T04:17:18.862Z,1019.71
2018-05-17T04:18:40.142Z,1019.77
2018-05-17T04:20:01.680Z,1019.71
2018-05-17T04:21:23.483Z,1019.69
2018-05-17T04:22:45.555Z,1019.68
2018-05-17T04:24:07.614Z,1019.69
2018-05-17T04:25:29.137Z,1019.7
2018-05-17T04:26:50.944Z,1019.77
2018-05-17T04:28:12.480Z,1019.71
2018-05-17T04:29:34.530Z,1019.66
2018-05-17T04:30:56.623Z,1019.76
2018-05-17T04:32:18.432Z,1019.78
2018-05-17T04:33:40.237Z,1019.82
2018-05-17T04:35:02.036Z,1019.77
2018-05-17T04:36:23.821Z,1019.74
2018-05-17T04:37:45.975Z,1019.74
2018-05-17T04:39:08.034Z,1019.75
2018-05-17T04:40:29.916Z,1019.71
2018-05-17T04:41:52.085Z,1019.7
2018-05-17T04:43:13.906Z,1019.69
2018-05-17T04:44:35.958Z,1019.69
2018-05-17T04:45:58.030Z,1019.72
2018-05-17T04:47:20.089Z,1019.74
2018-05-17T04:48:41.894Z,1019.64
2018-05-17T04:50:03.967Z,1019.7
2018-05-17T04:51:25.766Z,1019.71
2018-05-17T04:52:47.571Z,1019.7
2018-05-17T04:54:08.843Z,1019.7
2018-05-17T04:55:30.640Z,1019.73
2018-05-17T04:56:52.733Z,1019.72
2018-05-17T04:58:14.785Z,1019.74
2018-05-17T04:59:36.847Z,1019.72
2018-05-17T05:00:58.657Z,1019.81
2018-05-17T05:02:20.201Z,1019.79
2018-05-17T05:03:42.127Z,1019.79
2018-05-17T05:05:04.178Z,1019.82
2018-05-17T05:06:25.988Z,1019.86
2018-05-17T05:07:47.785Z,1019.85
2018-05-17T05:09:09.883Z,1019.85
2018-05-17T05:10:31.525Z,1019.85
2018-05-17T05:11:53.070Z,1019.88
2018-05-17T05:13:14.879Z,1019.85
2018-05-17T05:14:36.439Z,1019.87
2018-05-17T05:15:57.969Z,1019.92
2018-05-17T05:17:20.061Z,1019.88
2018-05-17T05:18:41.870Z,1019.86
2018-05-17T05:20:03.673Z,1019.84
2018-05-17T05:21:25.480Z,1019.86
2018-05-17T05:22:47.288Z,1019.86
2018-05-17T05:24:09.358Z,1019.83
2018-05-17T05:25:30.910Z,1019.82
2018-05-17T05:26:52.969Z,1019.77
2018-05-17T05:28:14.528Z,1019.75
2018-05-17T05:29:36.411Z,1019.8
2018-05-17T05:30:57.957Z,1019.78
2018-05-17T05:32:19.752Z,1019.84
2018-05-17T05:33:41.558Z,1019.85
2018-05-17T05:35:03.364Z,1019.85
2018-05-17T05:36:25.167Z,1019.83
2018-05-17T05:37:46.981Z,1019.81
2018-05-17T05:39:08.826Z,1019.86
2018-05-17T05:40:30.885Z,1019.91
2018-05-17T05:41:52.691Z,1019.93
2018-05-17T05:43:15.000Z,1019.84
2018-05-17T05:44:36.991Z,1019.88
2018-05-17T05:45:59.053Z,1019.96
2018-05-17T05:47:21.122Z,1019.98
2018-05-17T05:48:42.931Z,1020.03
2018-05-17T05:50:04.461Z,1019.96
2018-05-17T05:51:26.533Z,1019.99
2018-05-17T05:52:48.602Z,1019.99
2018-05-17T05:54:10.137Z,1020.02
2018-05-17T05:55:31.937Z,1020.02
2018-05-17T05:56:54.004Z,1020.06
2018-05-17T05:58:16.063Z,1020.05
2018-05-17T05:59:37.870Z,1020.05
2018-05-17T06:00:59.688Z,1020.04
2018-05-17T06:02:21.323Z,1020.05
2018-05-17T06:03:43.532Z,1020.3
2018-05-17T06:05:05.355Z,1020.17
2018-05-17T06:06:27.418Z,1020.1
2018-05-17T06:07:49.490Z,1020.11
2018-05-17T06:09:11.566Z,1020.15
2018-05-17T06:10:33.651Z,1020.14
2018-05-17T06:11:55.705Z,1020.11
2018-05-17T06:13:17.512Z,1020.11
2018-05-17T06:14:39.587Z,1020.16
2018-05-17T06:16:01.655Z,1020.3
2018-05-17T06:17:23.781Z,1020.1
2018-05-17T06:18:45.997Z,1020.15
2018-05-17T06:20:07.835Z,1020.16
2018-05-17T06:21:29.655Z,1020.22
2018-05-17T06:22:51.735Z,1020.33
2018-05-17T06:24:13.565Z,1020.23
2018-05-17T06:25:35.628Z,1020.34
2018-05-17T06:26:57.715Z,1020.24
2018-05-17T06:28:19.510Z,1020.24
2018-05-17T06:29:41.319Z,1020.24
2018-05-17T06:31:03.132Z,1020.3
2018-05-17T06:32:24.926Z,1020.23
2018-05-17T06:33:46.995Z,1020.38
2018-05-17T06:35:09.063Z,1020.28
2018-05-17T06:36:30.865Z,1020.27
2018-05-17T06:37:53.003Z,1020.25
2018-05-17T06:39:14.814Z,1020.26
2018-05-17T06:40:36.357Z,1020.27
2018-05-17T06:41:58.417Z,1020.3
2018-05-17T06:43:20.213Z,1020.23
2018-05-17T06:44:42.040Z,1020.32
2018-05-17T06:46:03.851Z,1020.24
2018-05-17T06:47:25.908Z,1020.22
2018-05-17T06:48:47.444Z,1020.3
2018-05-17T06:50:09.527Z,1020.38
2018-05-17T06:51:31.357Z,1020.35
2018-05-17T06:52:53.613Z,1020.4
2018-05-17T06:54:15.696Z,1020.48
2018-05-17T06:55:37.783Z,1020.45
2018-05-17T06:56:59.840Z,1020.5
2018-05-17T06:58:21.655Z,1020.54
2018-05-17T06:59:43.457Z,1020.52
2018-05-17T07:01:05.608Z,1020.42
2018-05-17T07:02:27.562Z,1020.47
2018-05-17T07:03:49.392Z,1020.49
2018-05-17T07:05:11.480Z,1020.49
2018-05-17T07:06:33.540Z,1020.46
2018-05-17T07:07:55.349Z,1020.54
2018-05-17T07:09:17.421Z,1020.48
2018-05-17T07:10:39.499Z,1020.49
2018-05-17T07:12:01.302Z,1020.45
2018-05-17T07:13:23.361Z,1020.58
2018-05-17T07:14:45.459Z,1020.57
2018-05-17T07:16:07.022Z,1020.56
2018-05-17T07:17:28.842Z,1020.6
2018-05-17T07:18:50.374Z,1020.61
2018-05-17T07:20:12.209Z,1020.6
2018-05-17T07:21:34.026Z,1020.62
2018-05-17T07:22:55.843Z,1020.63
2018-05-17T07:24:17.895Z,1020.63
2018-05-17T07:25:39.706Z,1020.59
2018-05-17T07:27:01.516Z,1020.6
2018-05-17T07:28:23.313Z,1020.6
2018-05-17T07:29:45.182Z,1020.67
2018-05-17T07:31:07.062Z,1020.63
2018-05-17T07:32:29.190Z,1020.66
2018-05-17T07:33:51.272Z,1020.61
2018-05-17T07:35:13.343Z,1020.52
2018-05-17T07:36:35.431Z,1020.52
2018-05-17T07:37:57.529Z,1020.56
2018-05-17T07:39:19.372Z,1020.51
2018-05-17T07:40:41.184Z,1020.56
2018-05-17T07:42:03.251Z,1020.57
2018-05-17T07:43:25.040Z,1020.63
2018-05-17T07:44:47.113Z,1020.62
2018-05-17T07:46:08.919Z,1020.75
2018-05-17T07:47:30.463Z,1020.64
2018-05-17T07:48:52.543Z,1020.62
2018-05-17T07:50:14.341Z,1020.65
2018-05-17T07:51:35.626Z,1020.66
2018-05-17T07:52:57.179Z,1020.67
2018-05-17T07:54:19.242Z,1020.76
2018-05-17T07:55:41.354Z,1020.76
2018-05-17T07:57:02.993Z,1020.78
2018-05-17T07:58:25.072Z,1020.82
2018-05-17T07:59:46.599Z,1020.82
2018-05-17T08:01:08.658Z,1021.01
2018-05-17T08:02:30.741Z,1020.96
2018-05-17T08:03:52.828Z,1020.88
2018-05-17T08:05:14.649Z,1020.95
2018-05-17T08:06:36.471Z,1020.92
2018-05-17T08:07:58.555Z,1020.84
2018-05-17T08:09:20.658Z,1020.82
2018-05-17T08:10:42.920Z,1020.81
2018-05-17T08:12:04.737Z,1020.85
2018-05-17T08:13:26.563Z,1020.79
2018-05-17T08:14:48.354Z,1020.86
2018-05-17T08:16:09.892Z,1020.88
2018-05-17T08:17:31.957Z,1020.78
2018-05-17T08:18:53.510Z,1020.78
2018-05-17T08:20:15.052Z,1020.81
2018-05-17T08:21:36.862Z,1020.89
2018-05-17T08:22:58.923Z,1020.83
2018-05-17T08:24:20.991Z,1020.89
2018-05-17T08:25:43.084Z,1020.91
2018-05-17T08:27:05.160Z,1020.85
2018-05-17T08:28:27.242Z,1020.94
2018-05-17T08:29:49.151Z,1020.94
2018-05-17T08:31:10.989Z,1020.91
2018-05-17T08:32:32.528Z,1020.92
2018-05-17T08:33:54.606Z,1020.97
2018-05-17T08:35:16.683Z,1020.98
2018-05-17T08:36:38.798Z,1021.1
2018-05-17T08:38:01.268Z,1021.06
2018-05-17T08:39:23.079Z,1021.05
2018-05-17T08:40:45.165Z,1021.09
2018-05-17T08:42:06.977Z,1021.06
2018-05-17T08:43:29.047Z,1020.95
2018-05-17T08:44:50.853Z,1021.03
2018-05-17T08:46:12.935Z,1021.04
2018-05-17T08:47:35.012Z,1021.11
2018-05-17T08:48:56.828Z,1021.05
2018-05-17T08:50:18.628Z,1021.03
2018-05-17T08:51:40.703Z,1021.03
2018-05-17T08:53:02.775Z,1021.06
2018-05-17T08:54:24.393Z,1021.02
2018-05-17T08:55:45.935Z,1020.96
2018-05-17T08:57:07.753Z,1021.2
2018-05-17T08:58:29.298Z,1021.12
2018-05-17T08:59:51.498Z,1021.19
2018-05-17T09:01:13.597Z,1021.16
2018-05-17T09:02:35.397Z,1021.18
2018-05-17T09:03:57.485Z,1021.14
2018-05-17T09:05:19.310Z,1021.16
2018-05-17T09:06:41.125Z,1021.22
2018-05-17T09:08:02.939Z,1021.12
2018-05-17T09:09:24.772Z,1020.99
2018-05-17T09:10:46.602Z,1021.07
2018-05-17T09:12:08.664Z,1021.18
2018-05-17T09:13:30.835Z,1021.14
2018-05-17T09:14:52.935Z,1021.15
2018-05-17T09:16:14.994Z,1021.14
2018-05-17T09:17:36.783Z,1021.1
2018-05-17T09:18:58.584Z,1021.12
2018-05-17T09:20:20.684Z,1021.27
2018-05-17T09:21:42.941Z,1021.25
2018-05-17T09:23:04.496Z,1021.26
2018-05-17T09:24:26.552Z,1021.24
2018-05-17T09:25:48.611Z,1021.25
2018-05-17T09:27:10.693Z,1021.25
2018-05-17T09:28:31.965Z,1021.34
2018-05-17T09:29:54.063Z,1021.36
2018-05-17T09:31:16.118Z,1021.25
2018-05-17T09:32:38.196Z,1021.39
2018-05-17T09:34:00.010Z,1021.38
2018-05-17T09:35:22.092Z,1021.41
2018-05-17T09:36:44.328Z,1021.46
2018-05-17T09:38:06.408Z,1021.53
2018-05-17T09:39:28.478Z,1021.61
2018-05-17T09:40:49.775Z,1021.44
2018-05-17T09:42:11.914Z,1021.4
2018-05-17T09:43:33.711Z,1021.47
2018-05-17T09:44:55.545Z,1021.38
2018-05-17T09:46:17.620Z,1021.34
2018-05-17T09:47:39.762Z,1021.37
2018-05-17T09:49:01.858Z,1021.39
2018-05-17T09:50:23.403Z,1021.49
2018-05-17T09:51:45.485Z,1021.45
2018-05-17T09:53:07.304Z,1021.45
2018-05-17T09:54:29.128Z,1021.28
2018-05-17T09:55:51.047Z,1021.35
2018-05-17T09:57:13.131Z,1021.37
2018-05-17T09:58:34.421Z,1021.38
2018-05-17T09:59:56.248Z,1021.38
2018-05-17T10:01:18.332Z,1021.39
2018-05-17T10:02:40.150Z,1021.37
2018-05-17T10:04:02.213Z,1021.4
2018-05-17T10:05:24.302Z,1021.44
2018-05-17T10:06:46.103Z,1021.4
2018-05-17T10:08:08.160Z,1021.54
2018-05-17T10:09:29.961Z,1021.46
2018-05-17T10:10:52.050Z,1021.46
2018-05-17T10:12:13.606Z,1021.48
2018-05-17T10:13:35.692Z,1021.47
2018-05-17T10:14:57.589Z,1021.46
2018-05-17T10:16:18.873Z,1021.46
2018-05-17T10:17:40.683Z,1021.47
2018-05-17T10:19:02.257Z,1021.49
2018-05-17T10:20:24.345Z,1021.52
2018-05-17T10:21:46.210Z,1021.55
2018-05-17T10:23:08.398Z,1021.47
2018-05-17T10:24:30.587Z,1021.44
2018-05-17T10:25:52.649Z,1021.51
2018-05-17T10:27:14.461Z,1021.38
2018-05-17T10:28:36.282Z,1021.41
2018-05-17T10:29:58.102Z,1021.38
2018-05-17T10:31:19.917Z,1021.4
2018-05-17T10:32:41.743Z,1021.38
2018-05-17T10:34:03.808Z,1021.34
2018-05-17T10:35:25.676Z,1021.37
2018-05-17T10:36:47.805Z,1021.35
2018-05-17T10:38:09.564Z,1021.37
2018-05-17T10:39:31.385Z,1021.38
2018-05-17T10:40:52.924Z,1021.32
2018-05-17T10:42:15.008Z,1021.32
2018-05-17T10:43:36.847Z,1021.33
2018-05-17T10:44:58.926Z,1021.31
2018-05-17T10:46:20.729Z,1021.36
2018-05-17T10:47:42.296Z,1021.37
2018-05-17T10:49:04.188Z,1021.31
2018-05-17T10:50:26.109Z,1021.3
2018-05-17T10:51:47.669Z,1021.32
2018-05-17T10:53:09.463Z,1021.3
2018-05-17T10:54:31.583Z,1021.29
2018-05-17T10:55:53.811Z,1021.29
2018-05-17T10:57:15.617Z,1021.33
2018-05-17T10:58:37.674Z,1021.3
2018-05-17T10:59:59.495Z,1021.29
2018-05-17T11:01:21.571Z,1021.31
2018-05-17T11:02:43.404Z,1021.27
2018-05-17T11:04:05.224Z,1021.37
2018-05-17T11:05:27.035Z,1021.3
2018-05-17T11:06:49.120Z,1021.39
2018-05-17T11:08:10.924Z,1021.41
2018-05-17T11:09:32.986Z,1021.36
2018-05-17T11:10:54.807Z,1021.36
2018-05-17T11:12:16.670Z,1021.31
2018-05-17T11:13:38.504Z,1021.31
2018-05-17T11:15:00.308Z,1021.25
2018-05-17T11:16:22.683Z,1021.34
2018-05-17T11:17:44.773Z,1021.2
2018-05-17T11:19:06.851Z,1021.3
2018-05-17T11:20:28.689Z,1021.21
2018-05-17T11:21:50.789Z,1021.36
2018-05-17T11:23:12.589Z,1021.24
2018-05-17T11:24:34.683Z,1021.26
2018-05-17T11:25:56.287Z,1021.2
2018-05-17T11:27:18.429Z,1021.27
2018-05-17T11:28:40.495Z,1021.21
2018-05-17T11:30:02.571Z,1021.16
2018-05-17T11:31:24.396Z,1021.14
2018-05-17T11:32:45.943Z,1021.21
2018-05-17T11:34:08.022Z,1021.18
2018-05-17T11:35:29.850Z,1021.14
2018-05-17T11:36:51.656Z,1021.13
2018-05-17T11:38:13.761Z,1021.15
2018-05-17T11:39:36.076Z,1021.17
2018-05-17T11:40:57.875Z,1021.17
2018-05-17T11:42:19.687Z,1021.12
2018-05-17T11:43:41.780Z,1021.11
2018-05-17T11:45:03.322Z,1021.16
2018-05-17T11:46:25.402Z,1021.14
2018-05-17T11:47:46.988Z,1021.12
2018-05-17T11:49:09.052Z,1021.19
2018-05-17T11:50:31.184Z,1021.15
2018-05-17T11:51:53.048Z,1021.15
2018-05-17T11:53:14.890Z,1021.16
2018-05-17T11:54:36.971Z,1021.19
2018-05-17T11:55:59.057Z,1021.21
2018-05-17T11:57:20.845Z,1021.12
2018-05-17T11:58:42.673Z,1021.16
2018-05-17T12:00:04.756Z,1021.11
2018-05-17T12:01:26.939Z,1021.14
2018-05-17T12:02:49.250Z,1021.08
2018-05-17T12:04:11.066Z,1021.08
2018-05-17T12:05:33.166Z,1021.05
2018-05-17T12:06:54.985Z,1021.06
2018-05-17T12:08:16.899Z,1021.05
2018-05-17T12:09:38.739Z,1021.09
2018-05-17T12:11:00.301Z,1021.02
2018-05-17T12:12:21.848Z,1021.03
2018-05-17T12:13:43.945Z,1021.03
2018-05-17T12:15:06.050Z,1021.04
2018-05-17T12:16:27.874Z,1021.04
2018-05-17T12:17:49.956Z,1021.02
2018-05-17T12:19:12.066Z,1021.01
2018-05-17T12:20:33.893Z,1021
2018-05-17T12:21:55.480Z,1021.04
2018-05-17T12:23:17.299Z,1020.99
2018-05-17T12:24:39.365Z,1020.91
2018-05-17T12:26:01.451Z,1020.85
2018-05-17T12:27:23.547Z,1020.87
2018-05-17T12:28:45.354Z,1020.94
2018-05-17T12:30:07.173Z,1020.93
2018-05-17T12:31:29.359Z,1020.9
2018-05-17T12:32:51.934Z,1020.92
2018-05-17T12:34:14.030Z,1020.89
2018-05-17T12:35:36.130Z,1020.91
2018-05-17T12:36:58.223Z,1020.93
2018-05-17T12:38:20.477Z,1020.86
2018-05-17T12:39:42.578Z,1020.85
2018-05-17T12:41:04.674Z,1020.86
2018-05-17T12:42:26.770Z,1020.95
2018-05-17T12:43:48.761Z,1020.86
2018-05-17T12:45:10.597Z,1020.87
2018-05-17T12:46:32.430Z,1020.99
2018-05-17T12:47:54.778Z,1020.89
2018-05-17T12:49:16.622Z,1020.91
2018-05-17T12:50:38.673Z,1020.9
2018-05-17T12:52:01.109Z,1020.9
2018-05-17T12:53:23.190Z,1020.85
2018-05-17T12:54:44.771Z,1020.88
2018-05-17T12:56:06.607Z,1020.82
2018-05-17T12:57:28.421Z,1020.82
2018-05-17T12:58:50.313Z,1020.87
2018-05-17T13:00:12.627Z,1020.89
2018-05-17T13:01:34.723Z,1020.87
2018-05-17T13:02:56.819Z,1020.92
2018-05-17T13:04:18.631Z,1020.88
2018-05-17T13:05:40.726Z,1020.93
2018-05-17T13:07:02.860Z,1020.85
2018-05-17T13:08:25.048Z,1020.89
2018-05-17T13:09:47.123Z,1020.87
2018-05-17T13:11:08.962Z,1020.9
2018-05-17T13:12:31.070Z,1020.86
2018-05-17T13:13:52.617Z,1020.86
2018-05-17T13:15:14.407Z,1020.9
2018-05-17T13:16:35.706Z,1020.83
2018-05-17T13:17:57.513Z,1020.81
2018-05-17T13:19:19.601Z,1020.87
2018-05-17T13:20:41.701Z,1020.84
2018-05-17T13:22:03.780Z,1020.86
2018-05-17T13:23:25.615Z,1020.84
2018-05-17T13:24:47.531Z,1020.87
2018-05-17T13:26:09.827Z,1020.79
2018-05-17T13:27:31.927Z,1020.83
2018-05-17T13:28:53.217Z,1020.82
2018-05-17T13:30:15.343Z,1020.79
2018-05-17T13:31:37.314Z,1020.82
2018-05-17T13:32:59.397Z,1020.76
2018-05-17T13:34:20.697Z,1020.76
2018-05-17T13:35:41.979Z,1020.78
2018-05-17T13:37:04.058Z,1020.82
2018-05-17T13:38:26.467Z,1020.78
2018-05-17T13:39:48.568Z,1020.77
2018-05-17T13:41:10.672Z,1020.68
2018-05-17T13:42:32.502Z,1020.75
2018-05-17T13:43:54.398Z,1020.72
2018-05-17T13:45:16.228Z,1020.71
2018-05-17T13:46:38.041Z,1020.75
2018-05-17T13:48:00.159Z,1020.76
2018-05-17T13:49:22.373Z,1020.72
2018-05-17T13:50:44.466Z,1020.7
2018-05-17T13:52:06.647Z,1020.73
2018-05-17T13:53:28.751Z,1020.72
2018-05-17T13:54:50.851Z,1020.66
2018-05-17T13:56:12.938Z,1020.69
2018-05-17T13:57:34.772Z,1020.69
2018-05-17T13:58:56.581Z,1020.69
2018-05-17T14:00:18.662Z,1020.66
2018-05-17T14:01:40.231Z,1020.68
2018-05-17T14:03:02.065Z,1020.66
2018-05-17T14:04:23.897Z,1020.62
2018-05-17T14:05:45.449Z,1020.69
2018-05-17T14:07:07.307Z,1020.68
2018-05-17T14:08:29.415Z,1020.72
2018-05-17T14:09:51.502Z,1020.73
2018-05-17T14:11:13.037Z,1020.72
2018-05-17T14:12:34.898Z,1020.66
2018-05-17T14:13:57.017Z,1020.67
2018-05-17T14:15:19.242Z,1020.66
2018-05-17T14:16:41.446Z,1020.56
2018-05-17T14:18:03.336Z,1020.63
2018-05-17T14:19:25.434Z,1020.65
2018-05-17T14:20:46.724Z,1020.64
2018-05-17T14:22:08.809Z,1020.63
2018-05-17T14:23:30.905Z,1020.66
2018-05-17T14:24:52.484Z,1020.63
2018-05-17T14:26:14.409Z,1020.7
2018-05-17T14:27:36.507Z,1020.67
2018-05-17T14:28:58.355Z,1020.68
2018-05-17T14:30:19.943Z,1020.66
2018-05-17T14:31:42.217Z,1020.67
2018-05-17T14:33:03.791Z,1020.76
2018-05-17T14:34:25.888Z,1020.71
2018-05-17T14:35:47.963Z,1020.71
2018-05-17T14:37:09.813Z,1020.67
2018-05-17T14:38:31.906Z,1020.72
2018-05-17T14:39:54.228Z,1020.71
2018-05-17T14:41:16.313Z,1020.68
2018-05-17T14:42:37.886Z,1020.67
2018-05-17T14:43:59.830Z,1020.62
2018-05-17T14:45:21.689Z,1020.62
2018-05-17T14:46:43.807Z,1020.61
2018-05-17T14:48:05.627Z,1020.6
2018-05-17T14:49:27.455Z,1020.57
2018-05-17T14:50:49.301Z,1020.54
2018-05-17T14:52:11.387Z,1020.56
2018-05-17T14:53:33.555Z,1020.6
2018-05-17T14:54:55.116Z,1020.59
2018-05-17T14:56:17.442Z,1020.55
2018-05-17T14:57:39.528Z,1020.46
2018-05-17T14:59:01.648Z,1020.54
2018-05-17T15:00:23.748Z,1020.49
2018-05-17T15:01:45.328Z,1020.56
2018-05-17T15:03:07.433Z,1020.58
2018-05-17T15:04:29.519Z,1020.62
2018-05-17T15:05:51.079Z,1020.62
2018-05-17T15:07:13.192Z,1020.67
2018-05-17T15:08:35.366Z,1020.68
2018-05-17T15:09:57.737Z,1020.63
2018-05-17T15:11:19.611Z,1020.7
2018-05-17T15:12:41.855Z,1020.64
2018-05-17T15:14:03.985Z,1020.64
2018-05-17T15:15:25.780Z,1020.67
2018-05-17T15:16:47.868Z,1020.66
2018-05-17T15:18:10.036Z,1020.61
2018-05-17T15:19:32.159Z,1020.6
2018-05-17T15:20:54.258Z,1020.6
2018-05-17T15:22:16.119Z,1020.61
2018-05-17T15:23:38.202Z,1020.65
2018-05-17T15:25:00.046Z,1020.64
2018-05-17T15:26:21.871Z,1020.62
2018-05-17T15:27:44.028Z,1020.59
2018-05-17T15:29:06.103Z,1020.58
2018-05-17T15:30:28.183Z,1020.61
2018-05-17T15:31:49.728Z,1020.57
2018-05-17T15:33:11.312Z,1020.64
2018-05-17T15:34:33.164Z,1020.59
2018-05-17T15:35:54.971Z,1020.6
2018-05-17T15:37:17.175Z,1020.6
2018-05-17T15:38:38.753Z,1020.55
2018-05-17T15:40:00.681Z,1020.55
2018-05-17T15:41:22.783Z,1020.49
2018-05-17T15:42:44.372Z,1020.48
2018-05-17T15:44:06.478Z,1020.43
2018-05-17T15:45:28.554Z,1020.44
2018-05-17T15:46:50.628Z,1020.42
2018-05-17T15:48:12.507Z,1020.47
2018-05-17T15:49:34.772Z,1020.42
2018-05-17T15:50:56.594Z,1020.37
2018-05-17T15:52:18.692Z,1020.35
2018-05-17T15:53:40.787Z,1020.34
2018-05-17T15:55:02.880Z,1020.36
2018-05-17T15:56:24.697Z,1020.38
2018-05-17T15:57:46.527Z,1020.35
2018-05-17T15:59:08.628Z,1020.41
2018-05-17T16:00:30.465Z,1020.43
2018-05-17T16:01:52.354Z,1020.33
2018-05-17T16:03:14.452Z,1020.36
2018-05-17T16:04:36.537Z,1020.41
2018-05-17T16:05:58.208Z,1020.38
2018-05-17T16:07:20.722Z,1020.37
2018-05-17T16:08:43.265Z,1020.37
2018-05-17T16:10:05.534Z,1020.38
2018-05-17T16:11:27.621Z,1020.37
2018-05-17T16:12:49.463Z,1020.38
2018-05-17T16:14:11.569Z,1020.38
2018-05-17T16:15:33.834Z,1020.35
2018-05-17T16:16:55.933Z,1020.38
2018-05-17T16:18:18.019Z,1020.41
2018-05-17T16:19:39.835Z,1020.42
2018-05-17T16:21:01.931Z,1020.4
2018-05-17T16:22:24.053Z,1020.47
2018-05-17T16:23:46.148Z,1020.43
2018-05-17T16:25:08.242Z,1020.42
2018-05-17T16:26:30.349Z,1020.4
2018-05-17T16:27:52.451Z,1020.48
2018-05-17T16:29:14.579Z,1020.49
2018-05-17T16:30:36.674Z,1020.52
2018-05-17T16:31:58.761Z,1020.43
2018-05-17T16:33:20.884Z,1020.44
2018-05-17T16:34:43.010Z,1020.37